Time;durP1;ratioP1;P1;durP2;ratioP2;P2;SDS_P1;SDS_P2;PMS_P1;PMS_P2;Temp;Humidity;BMP_temperature;BMP_pressure;BME280_temperature;BME280_humidity;BME280_pressure;Samples;Min_cycle;Max_cycle;Signal;HPM_P1;HPM_P2
2023/08/05 00:00:22;;;;;;;4.30;3.10;;;16.20;99.90;;;;;;5092478;28;20247;-71
2023/08/05 00:02:47;;;;;;;4.53;3.07;;;16.10;99.90;;;;;;5092428;28;20230;-71
2023/08/05 00:05:13;;;;;;;3.83;3.40;;;16.20;99.90;;;;;;5092724;28;20172;-73
2023/08/05 00:07:38;;;;;;;3.57;2.80;;;16.10;99.90;;;;;;5092787;28;20635;-72
2023/08/05 00:10:04;;;;;;;3.60;2.80;;;16.10;99.90;;;;;;5092586;28;20601;-71
2023/08/05 00:12:30;;;;;;;5.27;3.50;;;16.10;99.90;;;;;;5089613;28;20287;-71
2023/08/05 00:14:56;;;;;;;4.93;3.40;;;16.10;99.90;;;;;;5089218;28;20521;-71
2023/08/05 00:17:21;;;;;;;3.87;2.90;;;16.00;99.90;;;;;;5087112;28;20229;-71
2023/08/05 00:19:47;;;;;;;3.30;3.00;;;16.00;99.90;;;;;;5088272;28;20163;-71
2023/08/05 00:22:12;;;;;;;2.90;2.60;;;16.00;99.90;;;;;;5060658;28;20196;-71
2023/08/05 00:24:40;;;;;;;3.33;3.03;;;15.90;99.90;;;;;;5077362;28;20224;-71
2023/08/05 00:27:06;;;;;;;5.80;3.60;;;16.00;99.90;;;;;;5078953;28;20214;-71
2023/08/05 00:29:31;;;;;;;3.53;3.07;;;15.90;99.90;;;;;;5076589;28;20417;-71
2023/08/05 00:31:57;;;;;;;3.30;3.00;;;15.90;99.90;;;;;;5081496;28;20456;-70
2023/08/05 00:34:22;;;;;;;3.60;3.30;;;15.90;99.90;;;;;;5086869;28;20565;-70
2023/08/05 00:36:48;;;;;;;3.50;3.20;;;15.90;99.90;;;;;;5085551;28;20187;-71
2023/08/05 00:39:14;;;;;;;6.30;3.10;;;15.90;99.90;;;;;;5092088;28;20266;-71
2023/08/05 00:41:39;;;;;;;5.27;2.77;;;15.90;99.90;;;;;;5089951;28;20184;-71
2023/08/05 00:44:05;;;;;;;4.40;3.10;;;15.90;99.90;;;;;;5087022;28;20219;-71
2023/08/05 00:46:31;;;;;;;4.17;3.47;;;15.80;99.90;;;;;;5079650;28;20192;-71
2023/08/05 00:48:57;;;;;;;4.07;3.63;;;15.90;99.90;;;;;;5084295;28;20317;-71
2023/08/05 00:51:22;;;;;;;4.03;3.33;;;15.90;99.90;;;;;;5090028;28;20273;-71
2023/08/05 00:53:48;;;;;;;6.53;3.30;;;15.80;99.90;;;;;;5090739;28;20233;-71
2023/08/05 00:56:15;;;;;;;2.97;2.73;;;15.70;99.90;;;;;;5090752;28;20170;-70
2023/08/05 00:58:42;;;;;;;3.43;2.60;;;15.70;99.90;;;;;;5083301;28;20891;-70
2023/08/05 01:01:08;;;;;;;6.27;4.30;;;15.70;99.90;;;;;;5089377;28;20426;-71
2023/08/05 01:03:34;;;;;;;7.13;2.33;;;15.60;99.90;;;;;;5070386;28;20454;-71
2023/08/05 01:06:01;;;;;;;3.83;2.60;;;15.60;99.90;;;;;;5090554;28;20670;-71
2023/08/05 01:08:27;;;;;;;2.90;2.70;;;15.70;99.90;;;;;;5089377;28;20195;-71
2023/08/05 01:10:53;;;;;;;4.93;3.20;;;15.70;99.90;;;;;;5091110;28;20437;-71
2023/08/05 01:13:20;;;;;;;4.00;2.90;;;15.70;99.90;;;;;;5091375;28;20426;-71
2023/08/05 01:15:46;;;;;;;2.87;2.67;;;15.60;99.90;;;;;;5091571;28;20407;-71
2023/08/05 01:18:12;;;;;;;3.17;2.60;;;15.60;99.90;;;;;;5090633;28;20410;-71
2023/08/05 01:20:41;;;;;;;8.07;2.70;;;15.60;99.90;;;;;;5067174;28;20634;-71
2023/08/05 01:23:16;;;;;;;2.67;2.47;;;15.60;99.90;;;;;;5090450;28;20994;-71
2023/08/05 01:25:42;;;;;;;3.37;3.07;;;15.60;99.90;;;;;;5092079;28;20480;-71
2023/08/05 01:28:09;;;;;;;3.23;2.90;;;15.50;99.90;;;;;;5092362;28;20405;-71
2023/08/05 01:30:34;;;;;;;3.50;2.90;;;15.50;99.90;;;;;;5095173;28;20502;-71
2023/08/05 01:33:03;;;;;;;2.93;2.60;;;15.50;99.90;;;;;;5095869;28;21083;-71
2023/08/05 01:35:29;;;;;;;3.70;2.80;;;15.50;99.90;;;;;;5091574;28;20826;-71
2023/08/05 01:37:55;;;;;;;3.97;2.93;;;15.50;99.90;;;;;;5077434;28;20433;-71
2023/08/05 01:40:21;;;;;;;3.20;3.00;;;15.40;99.90;;;;;;5103515;28;20180;-71
2023/08/05 01:42:46;;;;;;;3.70;3.10;;;15.40;99.90;;;;;;5107547;28;20259;-71
2023/08/05 01:45:12;;;;;;;5.30;3.73;;;15.40;99.90;;;;;;5104978;28;20419;-71
2023/08/05 01:47:37;;;;;;;6.10;3.60;;;15.40;99.90;;;;;;5107866;28;20173;-71
2023/08/05 01:50:03;;;;;;;4.30;3.73;;;15.40;99.90;;;;;;5089608;28;20232;-70
2023/08/05 01:52:29;;;;;;;3.77;3.30;;;15.40;99.90;;;;;;5086454;28;20206;-72
2023/08/05 01:54:55;;;;;;;3.63;3.33;;;15.30;99.90;;;;;;5058329;28;20427;-72
2023/08/05 01:57:20;;;;;;;4.67;2.87;;;15.30;99.90;;;;;;5079710;28;20179;-71
2023/08/05 01:59:46;;;;;;;3.97;3.57;;;15.30;99.90;;;;;;5088980;28;20189;-71
2023/08/05 02:02:11;;;;;;;5.10;3.37;;;15.20;99.90;;;;;;5093438;28;20715;-71
2023/08/05 02:04:37;;;;;;;6.43;3.10;;;15.30;99.90;;;;;;5091222;28;20181;-71
2023/08/05 02:07:03;;;;;;;6.23;3.73;;;15.30;99.90;;;;;;5093112;28;20180;-71
2023/08/05 02:09:28;;;;;;;5.00;4.17;;;15.20;99.90;;;;;;5085465;28;20657;-70
2023/08/05 02:11:54;;;;;;;5.40;3.00;;;15.20;99.90;;;;;;5068731;28;20202;-70
2023/08/05 02:14:19;;;;;;;4.77;3.67;;;15.20;99.90;;;;;;5075041;28;20167;-71
2023/08/05 02:16:45;;;;;;;7.67;4.40;;;15.20;99.90;;;;;;5089447;28;20204;-71
2023/08/05 02:19:11;;;;;;;4.20;3.50;;;15.10;99.90;;;;;;5088058;28;20176;-71
2023/08/05 02:21:36;;;;;;;3.37;3.07;;;15.10;99.90;;;;;;5092664;28;20629;-71
2023/08/05 02:24:02;;;;;;;4.53;3.10;;;15.10;99.90;;;;;;5090556;28;20321;-72
2023/08/05 02:26:28;;;;;;;5.33;3.87;;;15.10;99.90;;;;;;5080733;28;20188;-71
2023/08/05 02:28:53;;;;;;;3.73;3.43;;;15.00;99.90;;;;;;5093181;28;20412;-71
2023/08/05 02:31:19;;;;;;;5.30;3.70;;;15.00;99.90;;;;;;5088201;28;20202;-71
2023/08/05 02:33:44;;;;;;;4.73;3.40;;;15.00;99.90;;;;;;5093702;28;20661;-70
2023/08/05 02:36:10;;;;;;;8.57;4.53;;;15.00;99.90;;;;;;5075975;28;20245;-70
2023/08/05 02:38:36;;;;;;;7.10;4.27;;;14.90;99.90;;;;;;5093357;28;20218;-71
2023/08/05 02:41:06;;;;;;;11.53;4.27;;;14.90;99.90;;;;;;5092821;28;20166;-70
2023/08/05 02:43:32;;;;;;;6.20;4.00;;;14.90;99.90;;;;;;5083684;28;20559;-70
2023/08/05 02:45:57;;;;;;;5.07;4.10;;;14.90;99.90;;;;;;5055433;28;20439;-71
2023/08/05 02:48:24;;;;;;;5.47;4.50;;;14.90;99.90;;;;;;5073154;28;20167;-71
2023/08/05 02:50:51;;;;;;;6.07;4.43;;;14.80;99.90;;;;;;5073630;28;20288;-71
2023/08/05 02:53:16;;;;;;;6.17;4.30;;;14.80;99.90;;;;;;5073380;28;20769;-71
2023/08/05 02:55:42;;;;;;;7.43;4.53;;;14.80;99.90;;;;;;5055532;28;20508;-71
2023/08/05 02:58:08;;;;;;;8.80;4.63;;;14.80;99.90;;;;;;5081661;28;20174;-71
2023/08/05 03:00:34;;;;;;;6.07;4.63;;;14.70;99.90;;;;;;5078653;28;20926;-71
2023/08/05 03:02:59;;;;;;;6.07;4.17;;;14.70;99.90;;;;;;5078347;28;20209;-71
2023/08/05 03:05:25;;;;;;;7.37;4.20;;;14.70;99.90;;;;;;5067174;28;20273;-70
2023/08/05 03:07:51;;;;;;;3.90;3.50;;;14.60;99.90;;;;;;5091763;28;20202;-71
2023/08/05 03:10:16;;;;;;;4.47;4.07;;;14.60;99.90;;;;;;5091345;28;20852;-70
2023/08/05 03:12:42;;;;;;;4.60;3.80;;;14.60;99.90;;;;;;5118597;22;20214;-72
2023/08/05 03:15:08;;;;;;;4.37;3.97;;;14.50;99.90;;;;;;5060923;28;20172;-73
2023/08/05 03:17:35;;;;;;;5.73;3.93;;;14.50;99.90;;;;;;5071938;28;20167;-74
2023/08/05 03:20:04;;;;;;;8.10;4.83;;;14.50;99.90;;;;;;5072511;28;20430;-74
2023/08/05 03:22:30;;;;;;;4.10;3.50;;;14.50;99.90;;;;;;5051228;28;20451;-75
2023/08/05 03:24:56;;;;;;;7.43;3.97;;;14.50;99.90;;;;;;5060283;28;20426;-74
2023/08/05 03:27:21;;;;;;;5.30;4.00;;;14.50;99.90;;;;;;5053954;28;20172;-77
2023/08/05 03:29:47;;;;;;;4.50;4.07;;;14.40;99.90;;;;;;5047915;28;20199;-75
2023/08/05 03:32:13;;;;;;;4.57;4.10;;;14.40;99.90;;;;;;5040899;28;20223;-72
2023/08/05 03:34:38;;;;;;;4.83;4.33;;;14.40;99.90;;;;;;5054120;28;20171;-73
2023/08/05 03:37:04;;;;;;;4.93;3.87;;;14.30;99.90;;;;;;5055580;28;20174;-73
2023/08/05 03:39:30;;;;;;;4.50;4.10;;;14.30;99.90;;;;;;5049011;28;20540;-74
2023/08/05 03:41:55;;;;;;;9.77;4.17;;;14.30;99.90;;;;;;5049482;28;20426;-74
2023/08/05 03:44:21;;;;;;;4.80;4.23;;;14.30;99.90;;;;;;5051343;28;20171;-73
2023/08/05 03:46:47;;;;;;;6.73;4.20;;;14.30;99.90;;;;;;5051712;28;20180;-74
2023/08/05 03:49:12;;;;;;;4.47;4.13;;;14.30;99.90;;;;;;5051589;28;20550;-73
2023/08/05 03:51:38;;;;;;;4.87;4.30;;;14.30;99.90;;;;;;5061442;28;20449;-73
2023/08/05 03:54:03;;;;;;;5.80;4.10;;;14.30;99.90;;;;;;5071492;28;20237;-73
2023/08/05 03:56:30;;;;;;;8.40;4.53;;;14.30;99.90;;;;;;5061839;28;20243;-74
2023/08/05 03:58:56;;;;;;;5.60;4.30;;;14.30;99.90;;;;;;5051536;28;20202;-75
2023/08/05 04:01:22;;;;;;;6.30;4.50;;;14.40;99.90;;;;;;5058260;28;20441;-73
2023/08/05 04:03:51;;;;;;;4.63;4.23;;;14.40;99.90;;;;;;5052335;28;20461;-73
2023/08/05 04:06:20;;;;;;;4.93;4.20;;;14.40;99.90;;;;;;5050154;28;20175;-73
2023/08/05 04:08:50;;;;;;;5.10;4.10;;;14.40;99.90;;;;;;5062356;28;20819;-73
2023/08/05 04:11:16;;;;;;;6.47;3.87;;;14.50;99.90;;;;;;5058017;28;20529;-74
2023/08/05 04:13:44;;;;;;;3.93;3.50;;;14.50;99.90;;;;;;5050861;28;20469;-75
2023/08/05 04:16:10;;;;;;;5.30;4.20;;;14.50;99.90;;;;;;5051689;28;20562;-74
2023/08/05 04:18:38;;;;;;;4.43;4.03;;;14.60;99.90;;;;;;5051224;28;20754;-74
2023/08/05 04:21:04;;;;;;;5.57;4.10;;;14.60;99.90;;;;;;5049979;28;20453;-74
2023/08/05 04:23:32;;;;;;;8.30;3.70;;;14.60;99.90;;;;;;5044211;28;20446;-74
2023/08/05 04:25:59;;;;;;;6.90;3.90;;;14.60;99.90;;;;;;5062376;28;20635;-73
2023/08/05 04:28:25;;;;;;;3.90;3.50;;;14.70;99.90;;;;;;5068907;28;20440;-72
2023/08/05 04:30:52;;;;;;;4.40;4.00;;;14.80;99.90;;;;;;5071013;28;20901;-73
2023/08/05 04:33:18;;;;;;;5.43;3.90;;;14.70;99.90;;;;;;5071575;28;20522;-74
2023/08/05 04:35:48;;;;;;;8.30;3.57;;;14.80;99.90;;;;;;5072152;28;20408;-73
2023/08/05 04:38:14;;;;;;;6.53;3.90;;;14.80;99.90;;;;;;5071499;28;20409;-73
2023/08/05 04:40:39;;;;;;;3.90;3.60;;;14.80;99.90;;;;;;5067846;28;20484;-73
2023/08/05 04:43:05;;;;;;;5.57;3.63;;;14.90;99.90;;;;;;5062790;28;20951;-74
2023/08/05 04:45:31;;;;;;;3.30;3.00;;;14.90;99.90;;;;;;5050995;28;20173;-74
2023/08/05 04:47:56;;;;;;;4.03;3.63;;;14.90;99.90;;;;;;5050598;28;20176;-74
2023/08/05 04:50:22;;;;;;;4.20;3.30;;;15.00;99.90;;;;;;5050998;28;20179;-74
2023/08/05 04:52:48;;;;;;;6.13;4.10;;;15.00;99.90;;;;;;5049588;28;20241;-73
2023/08/05 04:55:17;;;;;;;3.40;3.13;;;15.10;99.90;;;;;;5050215;28;20161;-74
2023/08/05 04:57:43;;;;;;;5.67;3.90;;;15.20;99.90;;;;;;5049713;28;20406;-73
2023/08/05 05:00:09;;;;;;;5.07;4.17;;;15.10;99.90;;;;;;5065017;28;20418;-73
2023/08/05 05:02:36;;;;;;;3.80;3.30;;;15.20;99.90;;;;;;5053026;28;20430;-73
2023/08/05 05:05:03;;;;;;;3.80;3.50;;;15.20;99.90;;;;;;5074892;28;20895;-73
2023/08/05 05:07:29;;;;;;;4.87;3.90;;;15.30;99.90;;;;;;5063689;28;20497;-73
2023/08/05 05:09:55;;;;;;;4.93;3.60;;;15.30;99.90;;;;;;5051587;28;20824;-73
2023/08/05 05:12:21;;;;;;;3.90;3.37;;;15.50;99.90;;;;;;5052038;28;20220;-73
2023/08/05 05:14:46;;;;;;;3.20;2.90;;;15.60;99.90;;;;;;5053525;28;20195;-74
2023/08/05 05:17:16;;;;;;;5.40;3.07;;;15.80;99.90;;;;;;5067692;28;20432;-74
2023/08/05 05:19:45;;;;;;;3.50;3.20;;;16.00;99.90;;;;;;5071282;28;20172;-75
2023/08/05 05:22:18;;;;;;;3.53;2.70;;;16.40;99.90;;;;;;5074497;28;20803;-74
2023/08/05 05:24:45;;;;;;;3.70;2.60;;;16.90;99.90;;;;;;5074327;28;20550;-74
2023/08/05 05:27:14;;;;;;;4.80;2.87;;;17.60;99.90;;;;;;5056977;28;20504;-75
2023/08/05 05:29:39;;;;;;;3.13;2.70;;;17.70;99.90;;;;;;5051409;28;20429;-74
2023/08/05 05:32:05;;;;;;;3.47;2.50;;;17.60;99.90;;;;;;5052634;28;20473;-74
2023/08/05 05:34:31;;;;;;;3.30;3.00;;;17.80;99.90;;;;;;5070342;28;20316;-76
2023/08/05 05:36:57;;;;;;;2.93;2.50;;;17.80;99.90;;;;;;5072781;28;20467;-74
2023/08/05 05:39:22;;;;;;;3.83;3.00;;;18.00;99.90;;;;;;5056047;28;20268;-75
2023/08/05 05:41:48;;;;;;;3.90;2.53;;;18.10;99.90;;;;;;5071806;28;20254;-74
2023/08/05 05:44:14;;;;;;;3.40;2.80;;;18.30;99.90;;;;;;5061250;28;20193;-74
2023/08/05 05:46:40;;;;;;;3.20;2.20;;;18.60;99.90;;;;;;5052685;28;20889;-74
2023/08/05 05:49:06;;;;;;;3.47;2.83;;;18.90;99.90;;;;;;5060804;28;20172;-74
2023/08/05 05:51:32;;;;;;;3.00;2.43;;;19.40;99.90;;;;;;5071385;28;20244;-74
2023/08/05 05:53:58;;;;;;;4.73;2.40;;;19.60;99.90;;;;;;5073726;28;20430;-75
2023/08/05 05:56:23;;;;;;;4.60;2.47;;;20.00;99.90;;;;;;5053649;28;20722;-74
2023/08/05 05:58:50;;;;;;;3.00;2.33;;;20.00;99.90;;;;;;5073765;28;20193;-74
2023/08/05 06:01:16;;;;;;;4.67;2.80;;;19.90;99.90;;;;;;5064643;28;20236;-74
2023/08/05 06:03:42;;;;;;;2.30;2.10;;;20.60;99.90;;;;;;5051866;28;20856;-74
2023/08/05 06:06:08;;;;;;;2.43;2.23;;;21.10;99.90;;;;;;5045295;28;20178;-74
2023/08/05 06:08:34;;;;;;;7.13;2.47;;;20.70;99.90;;;;;;5055126;28;20184;-74
2023/08/05 06:11:03;;;;;;;3.93;2.23;;;21.00;99.90;;;;;;5064065;28;20216;-74
2023/08/05 06:13:29;;;;;;;4.17;2.33;;;22.00;99.90;;;;;;5073915;28;20442;-75
2023/08/05 06:15:55;;;;;;;2.80;2.03;;;22.30;99.90;;;;;;5072353;28;20444;-75
2023/08/05 06:18:21;;;;;;;3.73;2.00;;;22.50;99.90;;;;;;5073515;28;20415;-74
2023/08/05 06:20:48;;;;;;;2.03;1.83;;;22.60;99.90;;;;;;5073564;28;20208;-75
2023/08/05 06:23:14;;;;;;;3.00;1.70;;;23.40;99.90;;;;;;5062747;28;20210;-75
2023/08/05 06:25:39;;;;;;;3.20;1.90;;;23.40;99.90;;;;;;5069040;28;21049;-75
2023/08/05 06:28:05;;;;;;;3.20;2.10;;;23.30;99.90;;;;;;5071444;28;20919;-75
2023/08/05 06:30:31;;;;;;;2.97;2.20;;;22.60;99.90;;;;;;5061845;28;20277;-75
2023/08/05 06:32:56;;;;;;;3.30;2.10;;;22.00;99.90;;;;;;5057493;28;20206;-75
2023/08/05 06:35:22;;;;;;;3.67;2.73;;;21.40;99.90;;;;;;5064177;28;20229;-75
2023/08/05 06:37:47;;;;;;;2.40;2.20;;;21.50;99.90;;;;;;5072927;28;20253;-75
2023/08/05 06:40:13;;;;;;;4.33;2.30;;;21.10;99.90;;;;;;5057595;28;20224;-74
2023/08/05 06:42:39;;;;;;;2.80;2.23;;;21.40;99.90;;;;;;5057334;28;20253;-75
2023/08/05 06:45:05;;;;;;;2.30;2.00;;;21.70;99.90;;;;;;5053242;28;20721;-75
2023/08/05 06:47:31;;;;;;;2.90;2.30;;;21.70;99.90;;;;;;5053947;28;20163;-75
2023/08/05 06:50:02;;;;;;;2.57;2.37;;;21.40;99.90;;;;;;5053668;28;20779;-75
2023/08/05 06:52:28;;;;;;;2.50;2.30;;;21.30;99.90;;;;;;5053274;28;20208;-75
2023/08/05 06:54:55;;;;;;;3.60;2.43;;;20.70;99.90;;;;;;5053454;28;20496;-74
2023/08/05 06:57:21;;;;;;;6.87;2.50;;;20.60;99.90;;;;;;5051738;28;20190;-74
2023/08/05 06:59:47;;;;;;;2.73;2.20;;;20.70;99.90;;;;;;5056286;28;20459;-74
2023/08/05 07:02:12;;;;;;;2.43;2.23;;;20.80;99.90;;;;;;5056006;28;20195;-73
2023/08/05 07:04:38;;;;;;;4.23;2.60;;;20.30;99.90;;;;;;5052798;28;20553;-74
2023/08/05 07:07:04;;;;;;;4.30;2.90;;;19.70;99.90;;;;;;5053247;28;20265;-76
2023/08/05 07:09:31;;;;;;;3.13;2.53;;;20.00;99.90;;;;;;5052930;28;20178;-74
2023/08/05 07:11:56;;;;;;;3.83;2.77;;;20.10;99.90;;;;;;5071764;28;20459;-75
2023/08/05 07:14:22;;;;;;;3.63;2.33;;;20.20;99.90;;;;;;5071537;28;20499;-75
2023/08/05 07:16:48;;;;;;;2.73;2.53;;;20.00;99.90;;;;;;5050998;28;20255;-75
2023/08/05 07:19:13;;;;;;;3.27;2.60;;;20.20;99.90;;;;;;5051266;28;20533;-74
2023/08/05 07:21:39;;;;;;;6.30;2.93;;;20.30;99.90;;;;;;5054222;28;20325;-75
2023/08/05 07:24:04;;;;;;;3.73;2.13;;;19.90;99.90;;;;;;5035612;28;20232;-74
2023/08/05 07:26:30;;;;;;;3.97;2.80;;;19.50;99.90;;;;;;5052527;28;20175;-73
2023/08/05 07:28:56;;;;;;;3.23;2.90;;;19.40;99.90;;;;;;5054000;28;20169;-73
2023/08/05 07:31:21;;;;;;;6.07;2.67;;;19.50;99.90;;;;;;5052098;28;20464;-74
2023/08/05 07:33:48;;;;;;;2.77;2.57;;;19.60;99.90;;;;;;5064372;28;20231;-75
2023/08/05 07:36:17;;;;;;;3.33;2.30;;;19.70;99.90;;;;;;5061890;28;20179;-73
2023/08/05 07:38:45;;;;;;;3.00;2.70;;;19.70;99.90;;;;;;5070418;28;20414;-75
2023/08/05 07:41:14;;;;;;;3.23;2.87;;;19.40;99.90;;;;;;5071697;28;20481;-73
2023/08/05 07:43:42;;;;;;;4.00;2.37;;;19.30;99.90;;;;;;5072007;28;20439;-75
2023/08/05 07:46:08;;;;;;;7.17;2.97;;;18.90;99.90;;;;;;5071856;28;20495;-74
2023/08/05 07:48:39;;;;;;;8.37;2.80;;;19.40;99.90;;;;;;5053330;28;20406;-74
2023/08/05 07:51:06;;;;;;;4.37;2.77;;;19.50;99.90;;;;;;5049071;28;20465;-73
2023/08/05 07:53:36;;;;;;;3.20;2.60;;;19.70;99.90;;;;;;5050728;28;20430;-75
2023/08/05 07:56:08;;;;;;;4.30;2.90;;;19.60;99.90;;;;;;5054329;28;20508;-75
2023/08/05 07:58:34;;;;;;;6.67;2.60;;;19.80;99.90;;;;;;5049743;28;20431;-75
2023/08/05 08:01:00;;;;;;;3.03;2.83;;;19.70;99.90;;;;;;5051367;28;20853;-75
2023/08/05 08:03:29;;;;;;;3.97;2.40;;;19.80;99.90;;;;;;5047010;28;20212;-74
2023/08/05 08:05:55;;;;;;;2.93;1.90;;;19.90;99.90;;;;;;5057044;28;20179;-73
2023/08/05 08:08:21;;;;;;;5.90;2.80;;;20.00;99.90;;;;;;5059404;28;20471;-74
2023/08/05 08:10:47;;;;;;;5.73;2.30;;;19.70;99.90;;;;;;5064868;28;20560;-77
2023/08/05 08:13:12;;;;;;;4.77;2.10;;;19.60;99.90;;;;;;5043990;28;20470;-75
2023/08/05 08:15:38;;;;;;;4.73;2.77;;;19.50;99.90;;;;;;5043728;28;20179;-73
2023/08/05 08:18:04;;;;;;;3.73;2.60;;;19.60;99.90;;;;;;5054009;28;20176;-74
2023/08/05 08:20:29;;;;;;;4.80;1.80;;;19.80;99.90;;;;;;5051379;28;20628;-75
2023/08/05 08:22:55;;;;;;;4.30;2.57;;;20.20;99.90;;;;;;5054941;28;20202;-74
2023/08/05 08:25:20;;;;;;;5.17;2.67;;;20.20;99.90;;;;;;5072047;28;20179;-74
2023/08/05 08:27:46;;;;;;;8.47;3.00;;;20.50;99.90;;;;;;5070899;28;20186;-73
2023/08/05 08:30:12;;;;;;;2.47;2.27;;;20.50;99.90;;;;;;5053936;28;20183;-74
2023/08/05 08:32:38;;;;;;;5.57;2.63;;;20.40;99.90;;;;;;5058204;28;21653;-73
2023/08/05 08:35:04;;;;;;;2.40;2.10;;;20.40;99.90;;;;;;5051851;28;20404;-74
2023/08/05 08:37:30;;;;;;;2.13;1.83;;;20.30;99.90;;;;;;5050744;28;20541;-73
2023/08/05 08:39:56;;;;;;;4.10;2.30;;;20.00;99.90;;;;;;5055616;28;20413;-74
2023/08/05 08:42:23;;;;;;;10.50;2.67;;;20.40;99.90;;;;;;5051250;28;20197;-76
2023/08/05 08:44:53;;;;;;;3.20;2.03;;;20.70;99.90;;;;;;5053740;28;20268;-74
2023/08/05 08:47:21;;;;;;;2.20;1.80;;;21.50;99.90;;;;;;5044177;28;20736;-74
2023/08/05 08:49:47;;;;;;;4.00;2.23;;;21.40;99.90;;;;;;5071092;28;20550;-74
2023/08/05 08:52:18;;;;;;;3.83;2.30;;;21.50;99.90;;;;;;5070651;28;20526;-73
2023/08/05 08:54:44;;;;;;;2.30;2.10;;;21.80;99.90;;;;;;5072992;28;20542;-74
2023/08/05 08:57:13;;;;;;;4.13;2.20;;;21.70;99.90;;;;;;5072479;28;20441;-74
2023/08/05 08:59:41;;;;;;;4.17;2.03;;;21.30;99.90;;;;;;5065572;28;20425;-74
2023/08/05 09:02:15;;;;;;;5.70;2.20;;;21.60;99.90;;;;;;5052992;28;20451;-75
2023/08/05 09:04:42;;;;;;;6.20;2.43;;;21.90;99.90;;;;;;5066931;28;20764;-74
2023/08/05 09:07:09;;;;;;;3.17;2.03;;;21.50;99.90;;;;;;5068851;28;20410;-74
2023/08/05 09:09:35;;;;;;;2.23;2.13;;;21.50;99.90;;;;;;5051065;28;20445;-74
2023/08/05 09:12:02;;;;;;;2.30;2.07;;;21.30;99.90;;;;;;5050275;28;20533;-74
2023/08/05 09:14:28;;;;;;;3.07;1.90;;;21.50;99.90;;;;;;5062934;28;20182;-74
2023/08/05 09:17:00;;;;;;;4.90;3.50;;;22.10;99.90;;;;;;5050731;28;20407;-74
2023/08/05 09:19:27;;;;;;;3.33;2.07;;;22.70;99.90;;;;;;5067954;28;20195;-74
2023/08/05 09:21:59;;;;;;;2.60;1.60;;;22.90;99.90;;;;;;5069604;28;20405;-74
2023/08/05 09:24:25;;;;;;;3.03;2.10;;;22.50;99.90;;;;;;5050755;28;20401;-75
2023/08/05 09:26:58;;;;;;;3.90;2.57;;;22.70;99.90;;;;;;5050337;28;20779;-75
2023/08/05 09:29:25;;;;;;;2.07;1.80;;;22.90;99.90;;;;;;5045125;28;20459;-75
2023/08/05 09:32:01;;;;;;;2.97;2.00;;;23.10;99.90;;;;;;5063467;28;20460;-75
2023/08/05 09:34:41;;;;;;;3.30;2.30;;;22.90;99.90;;;;;;5053911;28;20416;-75
2023/08/05 09:37:07;;;;;;;3.13;2.17;;;22.60;99.90;;;;;;5055914;28;20906;-74
2023/08/05 09:39:47;;;;;;;2.70;1.80;;;22.80;99.90;;;;;;5069042;28;20409;-75
2023/08/05 09:42:21;;;;;;;2.77;2.43;;;22.80;99.90;;;;;;5050373;28;20192;-76
2023/08/05 09:44:48;;;;;;;4.40;2.50;;;22.40;99.90;;;;;;5048530;28;20433;-73
2023/08/05 09:47:21;;;;;;;4.67;1.70;;;22.00;99.90;;;;;;5048002;28;20435;-74
2023/08/05 09:49:51;;;;;;;3.83;1.60;;;22.20;99.90;;;;;;5051594;28;20577;-74
2023/08/05 09:52:18;;;;;;;3.77;1.77;;;22.30;99.90;;;;;;5053390;28;20460;-74
2023/08/05 09:55:00;;;;;;;2.20;1.80;;;22.70;99.90;;;;;;5052020;28;20935;-74
2023/08/05 09:57:26;;;;;;;2.00;1.80;;;22.50;99.90;;;;;;5053912;28;20553;-74
2023/08/05 09:59:58;;;;;;;2.23;1.73;;;23.40;99.90;;;;;;5053296;28;20567;-75
2023/08/05 10:02:25;;;;;;;3.30;1.57;;;23.50;99.90;;;;;;5053773;28;20235;-74
2023/08/05 10:04:55;;;;;;;2.90;2.10;;;22.90;99.90;;;;;;5051796;28;20515;-74
2023/08/05 10:07:22;;;;;;;3.13;1.80;;;23.50;99.90;;;;;;5059897;28;20467;-74
2023/08/05 10:09:48;;;;;;;2.70;1.70;;;23.50;99.90;;;;;;5052323;28;20896;-75
2023/08/05 10:12:21;;;;;;;2.40;1.60;;;22.50;99.90;;;;;;5055591;28;20837;-75
2023/08/05 10:14:48;;;;;;;2.10;1.50;;;23.20;99.90;;;;;;5051898;28;20404;-74
2023/08/05 10:17:14;;;;;;;2.23;2.03;;;23.20;99.90;;;;;;5066038;28;20448;-75
2023/08/05 10:19:41;;;;;;;3.30;2.20;;;22.70;99.90;;;;;;5056976;28;20855;-74
2023/08/05 10:22:10;;;;;;;4.07;2.30;;;23.40;99.90;;;;;;5050752;28;20462;-75
2023/08/05 10:24:53;;;;;;;3.00;2.40;;;22.90;99.90;;;;;;5049058;28;20432;-75
2023/08/05 10:27:37;;;;;;;4.80;2.17;;;22.60;99.90;;;;;;5049859;28;20424;-74
2023/08/05 10:30:16;;;;;;;2.97;2.13;;;23.50;99.90;;;;;;5056330;28;20853;-74
2023/08/05 10:32:55;;;;;;;3.77;1.90;;;23.00;99.90;;;;;;5052709;28;20972;-74
2023/08/05 10:35:31;;;;;;;2.47;1.90;;;22.40;99.90;;;;;;5052308;28;20466;-74
2023/08/05 10:38:11;;;;;;;3.13;1.87;;;22.90;99.90;;;;;;5053399;28;20432;-74
2023/08/05 10:40:38;;;;;;;2.20;1.60;;;22.90;99.90;;;;;;5069963;28;20489;-73
2023/08/05 10:43:04;;;;;;;3.27;1.90;;;22.40;99.90;;;;;;5061268;28;20955;-75
2023/08/05 10:45:33;;;;;;;1.80;1.70;;;22.20;99.90;;;;;;5070758;28;20561;-77
2023/08/05 10:47:59;;;;;;;2.13;1.80;;;22.00;99.90;;;;;;5056137;28;20510;-74
2023/08/05 10:50:34;;;;;;;2.90;1.70;;;22.00;99.90;;;;;;5035458;28;20437;-74
2023/08/05 10:53:12;;;;;;;4.10;2.00;;;22.60;99.90;;;;;;5054600;28;20449;-74
2023/08/05 10:56:13;;;;;;;2.60;1.60;;;22.00;99.90;;;;;;5072678;28;20423;-74
2023/08/05 10:58:47;;;;;;;3.20;2.00;;;22.50;99.90;;;;;;5073108;28;20776;-73
2023/08/05 11:01:13;;;;;;;3.30;2.07;;;23.10;99.90;;;;;;5073034;28;20412;-73
2023/08/05 11:03:44;;;;;;;3.83;2.23;;;22.10;99.90;;;;;;5065724;28;20440;-73
2023/08/05 11:06:14;;;;;;;3.70;2.17;;;22.40;99.90;;;;;;5071440;28;20220;-73
2023/08/05 11:08:42;;;;;;;3.10;2.90;;;22.70;99.90;;;;;;5069048;28;20413;-77
2023/08/05 11:11:09;;;;;;;8.50;7.40;;;22.60;99.90;;;;;;5055779;28;20456;-70
2023/08/05 11:13:39;;;;;;;5.70;3.10;;;22.90;99.90;;;;;;5062180;28;20535;-72
2023/08/05 11:16:07;;;;;;;3.67;2.10;;;23.60;99.90;;;;;;5054627;28;20944;-74
2023/08/05 11:18:33;;;;;;;3.17;1.77;;;23.60;99.90;;;;;;5053730;28;20405;-79
2023/08/05 11:21:01;;;;;;;4.13;2.70;;;22.90;99.90;;;;;;5038739;28;20443;-76
2023/08/05 11:23:27;;;;;;;4.50;1.70;;;22.50;99.90;;;;;;5053925;28;20946;-75
2023/08/05 11:25:53;;;;;;;3.60;2.10;;;22.60;99.90;;;;;;5053127;28;20410;-76
2023/08/05 11:28:20;;;;;;;5.37;1.90;;;22.60;99.90;;;;;;5061921;28;20413;-78
2023/08/05 11:30:46;;;;;;;3.77;2.60;;;22.80;99.90;;;;;;5073673;28;20462;-78
2023/08/05 11:33:12;;;;;;;4.63;2.07;;;22.80;99.90;;;;;;5055394;28;20435;-76
2023/08/05 11:35:46;;;;;;;1.90;1.80;;;22.30;99.90;;;;;;5072964;28;20178;-76
2023/08/05 11:38:16;;;;;;;2.33;1.97;;;22.00;99.90;;;;;;5073625;28;20173;-71
2023/08/05 11:40:44;;;;;;;3.80;2.33;;;21.80;99.90;;;;;;5073380;28;20408;-77
2023/08/05 11:43:11;;;;;;;4.13;2.70;;;21.80;99.90;;;;;;5056416;28;20458;-74
2023/08/05 11:45:39;;;;;;;3.90;2.40;;;22.20;99.90;;;;;;5052534;28;20536;-77
2023/08/05 11:48:06;;;;;;;4.80;3.43;;;22.30;99.90;;;;;;5062232;28;20580;-76
2023/08/05 11:50:35;;;;;;;3.40;2.33;;;22.60;99.90;;;;;;5073957;28;20448;-76
2023/08/05 11:53:05;;;;;;;3.50;1.60;;;22.80;99.90;;;;;;5053957;28;20460;-75
2023/08/05 11:55:35;;;;;;;3.03;2.30;;;22.60;99.90;;;;;;5052734;28;20405;-75
2023/08/05 11:58:04;;;;;;;2.43;1.90;;;22.60;99.90;;;;;;5052308;28;20406;-74
2023/08/05 12:00:30;;;;;;;2.13;1.70;;;21.80;99.90;;;;;;5052146;28;20409;-74
2023/08/05 12:02:56;;;;;;;2.00;1.80;;;22.40;99.90;;;;;;5065822;28;20432;-74
2023/08/05 12:05:22;;;;;;;3.50;2.00;;;22.10;99.90;;;;;;5060430;28;20485;-74
2023/08/05 12:07:48;;;;;;;2.13;1.57;;;22.10;99.90;;;;;;5052544;28;20175;-71
2023/08/05 12:10:17;;;;;;;11.43;9.80;;;22.10;99.90;;;;;;5055941;28;20445;-73
2023/08/05 12:12:45;;;;;;;2.33;2.13;;;22.50;99.90;;;;;;5040937;28;20463;-71
2023/08/05 12:15:17;;;;;;;3.07;2.07;;;22.50;99.90;;;;;;5056064;28;20438;-72
2023/08/05 12:17:50;;;;;;;4.43;2.70;;;22.30;99.90;;;;;;5053024;28;20444;-71
2023/08/05 12:20:44;;;;;;;2.33;2.13;;;22.20;99.90;;;;;;5061497;28;20413;-72
2023/08/05 12:23:30;;;;;;;3.10;1.83;;;21.80;99.90;;;;;;5044430;28;20527;-71
2023/08/05 12:25:57;;;;;;;2.50;2.17;;;21.90;99.90;;;;;;5067193;28;20417;-71
2023/08/05 12:28:27;;;;;;;2.63;2.13;;;22.30;99.90;;;;;;5050705;28;20405;-72
2023/08/05 12:30:55;;;;;;;4.27;1.70;;;21.80;99.90;;;;;;5052158;28;20807;-74
2023/08/05 12:34:20;;;;;;;7.97;2.13;;;22.10;99.90;;;;;;5059907;28;20481;-73
2023/08/05 12:37:01;;;;;;;5.23;2.20;;;22.20;99.90;;;;;;5046863;28;20788;-72
2023/08/05 12:39:47;;;;;;;1.90;1.70;;;21.90;99.90;;;;;;5072325;28;20495;-72
2023/08/05 12:42:13;;;;;;;3.00;1.90;;;21.90;99.90;;;;;;5051860;28;20431;-73
2023/08/05 12:44:44;;;;;;;2.77;2.20;;;22.00;99.90;;;;;;5034486;28;20421;-73
2023/08/05 12:47:18;;;;;;;3.70;2.50;;;21.90;99.90;;;;;;5053307;28;20455;-73